createdAt,value
2023-08-16T00:01:45.826Z,5.32
2023-08-16T00:04:48.755Z,4.53
2023-08-16T00:07:51.701Z,3.85
2023-08-16T00:10:54.618Z,4.38
2023-08-16T00:13:59.202Z,4.05
2023-08-16T00:17:02.269Z,6.15
2023-08-16T00:20:11.005Z,5.65
2023-08-16T00:23:13.923Z,4.78
2023-08-16T00:26:16.799Z,5.15
2023-08-16T00:29:21.086Z,3.92
2023-08-16T00:32:24.010Z,4.13
2023-08-16T00:35:27.090Z,4.10
2023-08-16T00:38:30.200Z,5.15
2023-08-16T00:41:33.169Z,4.70
2023-08-16T00:44:37.839Z,8.98
2023-08-16T00:47:42.057Z,7.32
2023-08-16T00:50:45.309Z,6.70
2023-08-16T00:53:48.411Z,10.50
2023-08-16T00:56:51.340Z,11.90
2023-08-16T00:59:55.620Z,8.07
2023-08-16T01:02:58.688Z,7.07
2023-08-16T01:06:01.890Z,9.10
2023-08-16T01:09:05.740Z,10.70
2023-08-16T01:12:12.821Z,6.80
2023-08-16T01:15:20.996Z,13.60
2023-08-16T01:18:24.135Z,9.85
2023-08-16T01:21:28.659Z,9.63
2023-08-16T01:24:37.186Z,9.05
2023-08-16T01:27:41.471Z,7.70
2023-08-16T01:30:46.929Z,12.43
2023-08-16T01:33:49.959Z,8.18
2023-08-16T01:36:52.851Z,8.65
2023-08-16T01:40:03.422Z,11.18
2023-08-16T01:43:09.071Z,9.15
2023-08-16T01:46:12.292Z,7.93
2023-08-16T01:49:15.785Z,6.70
2023-08-16T01:52:18.675Z,8.63
2023-08-16T01:55:21.604Z,7.47
2023-08-16T01:58:26.112Z,11.05
2023-08-16T02:01:29.246Z,10.30
2023-08-16T02:04:32.209Z,7.70
2023-08-16T02:07:35.040Z,7.68
2023-08-16T02:10:38.134Z,8.05
2023-08-16T02:13:42.426Z,8.02
2023-08-16T02:16:45.400Z,7.25
2023-08-16T02:19:49.485Z,7.57
2023-08-16T02:22:52.316Z,8.27
2023-08-16T02:25:55.339Z,8.05
2023-08-16T02:28:59.555Z,9.95
2023-08-16T02:32:02.507Z,9.45
2023-08-16T02:35:06.029Z,9.48
2023-08-16T02:38:08.958Z,9.23
2023-08-16T02:41:11.861Z,9.95
2023-08-16T02:44:16.129Z,9.18
2023-08-16T02:47:19.053Z,9.48
2023-08-16T02:50:22.386Z,9.77
2023-08-16T02:53:25.252Z,9.70
2023-08-16T02:56:28.133Z,10.57
2023-08-16T02:59:40.956Z,9.23
2023-08-16T03:02:44.042Z,9.95
2023-08-16T03:05:47.048Z,10.20
2023-08-16T03:08:49.927Z,9.85
2023-08-16T03:11:52.822Z,10.98
2023-08-16T03:14:57.105Z,9.77
2023-08-16T03:18:00.047Z,9.45
2023-08-16T03:21:03.002Z,9.88
2023-08-16T03:24:06.633Z,10.27
2023-08-16T03:27:10.157Z,10.00
2023-08-16T03:30:17.927Z,11.32
2023-08-16T03:33:20.792Z,11.75
2023-08-16T03:36:23.980Z,9.63
2023-08-16T03:39:27.019Z,10.07
2023-08-16T03:42:29.904Z,11.55
2023-08-16T03:45:37.883Z,11.18
2023-08-16T03:48:40.738Z,12.10
2023-08-16T03:51:43.557Z,8.75
2023-08-16T03:54:46.522Z,12.02
2023-08-16T03:57:49.359Z,11.10
2023-08-16T04:00:54.378Z,10.18
2023-08-16T04:03:57.390Z,10.20
2023-08-16T04:07:00.940Z,10.52
2023-08-16T04:10:03.985Z,9.75
2023-08-16T04:13:07.274Z,10.80
2023-08-16T04:16:11.628Z,11.30
2023-08-16T04:19:14.897Z,9.05
2023-08-16T04:22:17.799Z,9.80
2023-08-16T04:25:21.636Z,11.05
2023-08-16T04:28:24.525Z,10.57
2023-08-16T04:31:28.841Z,10.43
2023-08-16T04:34:31.829Z,12.75
2023-08-16T04:37:34.658Z,10.45
2023-08-16T04:40:37.555Z,10.00
2023-08-16T04:43:40.486Z,11.00
2023-08-16T04:46:45.145Z,12.15
2023-08-16T04:49:48.171Z,11.65
2023-08-16T04:52:51.099Z,11.70
2023-08-16T04:55:54.054Z,9.75
2023-08-16T04:58:56.975Z,9.88
2023-08-16T05:02:01.267Z,9.43
2023-08-16T05:05:04.340Z,8.80
2023-08-16T05:08:07.483Z,9.82
2023-08-16T05:11:10.453Z,10.13
2023-08-16T05:14:13.336Z,9.27
2023-08-16T05:17:17.662Z,10.38
2023-08-16T05:20:20.502Z,9.35
2023-08-16T05:23:23.561Z,11.20
2023-08-16T05:26:26.565Z,8.60
2023-08-16T05:29:29.789Z,10.68
2023-08-16T05:32:34.281Z,8.80
2023-08-16T05:35:37.559Z,11.35
2023-08-16T05:38:40.543Z,9.05
2023-08-16T05:41:43.968Z,8.50
2023-08-16T05:44:47.175Z,10.93
2023-08-16T05:47:51.542Z,10.18
2023-08-16T05:50:54.651Z,11.52
2023-08-16T05:53:57.655Z,9.57
2023-08-16T05:57:00.557Z,11.02
2023-08-16T06:00:04.076Z,8.23
2023-08-16T06:03:08.579Z,8.02
2023-08-16T06:06:11.511Z,11.65
2023-08-16T06:09:14.447Z,11.65
2023-08-16T06:12:17.570Z,17.48
2023-08-16T06:15:20.498Z,10.80
2023-08-16T06:18:24.844Z,9.02
2023-08-16T06:21:27.954Z,10.73
2023-08-16T06:24:36.555Z,7.38
2023-08-16T06:27:40.162Z,10.95
2023-08-16T06:30:43.566Z,8.75
2023-08-16T06:33:47.949Z,7.78
2023-08-16T06:36:50.887Z,9.90
2023-08-16T06:39:53.939Z,9.07
2023-08-16T06:42:56.882Z,8.85
2023-08-16T06:45:59.782Z,9.18
2023-08-16T06:49:04.800Z,12.43
2023-08-16T06:52:08.982Z,9.60
2023-08-16T06:55:12.063Z,10.20
2023-08-16T06:58:18.055Z,6.68
2023-08-16T07:01:20.998Z,7.45
2023-08-16T07:04:25.330Z,6.97
2023-08-16T07:07:28.437Z,5.65
2023-08-16T07:10:31.279Z,7.80
2023-08-16T07:13:34.163Z,9.38
2023-08-16T07:16:37.852Z,9.45
2023-08-16T07:19:43.976Z,6.93
2023-08-16T07:22:47.151Z,8.13
2023-08-16T07:25:59.152Z,10.35
2023-08-16T07:29:02.078Z,7.32
2023-08-16T07:32:05.463Z,6.68
2023-08-16T07:35:10.671Z,6.60
2023-08-16T07:38:13.703Z,8.60
2023-08-16T07:41:17.004Z,8.95
2023-08-16T07:44:19.928Z,9.07
2023-08-16T07:47:22.738Z,7.85
2023-08-16T07:50:27.008Z,8.18
2023-08-16T07:53:29.981Z,9.05
2023-08-16T07:56:32.976Z,8.20
2023-08-16T07:59:36.522Z,8.27
2023-08-16T08:05:45.261Z,10.80
2023-08-16T08:08:48.158Z,6.32
2023-08-16T08:11:51.123Z,5.97
2023-08-16T08:14:54.225Z,7.75
2023-08-16T08:17:57.292Z,6.45
2023-08-16T08:21:05.973Z,6.78
2023-08-16T08:24:09.131Z,7.60
2023-08-16T08:27:12.389Z,6.70
2023-08-16T08:30:18.296Z,6.97
2023-08-16T08:33:21.303Z,6.28
2023-08-16T08:36:25.739Z,10.20
2023-08-16T08:39:30.263Z,8.38
2023-08-16T08:42:33.960Z,9.13
2023-08-16T08:45:38.722Z,8.30
2023-08-16T08:48:42.401Z,10.63
2023-08-16T08:51:46.702Z,6.85
2023-08-16T08:54:50.418Z,7.30
2023-08-16T08:57:56.265Z,6.53
2023-08-16T09:00:59.796Z,5.63
2023-08-16T09:04:04.223Z,8.60
2023-08-16T09:07:10.016Z,8.30
2023-08-16T09:10:13.691Z,8.27
2023-08-16T09:13:16.907Z,6.97
2023-08-16T09:16:19.986Z,8.18
2023-08-16T09:19:22.906Z,7.00
2023-08-16T09:22:28.350Z,7.68
2023-08-16T09:25:31.665Z,8.65
2023-08-16T09:28:34.600Z,6.97
2023-08-16T09:31:42.691Z,8.02
2023-08-16T09:38:17.968Z,6.63
2023-08-16T09:41:21.784Z,5.72
2023-08-16T09:44:29.359Z,6.63
2023-08-16T09:50:51.904Z,5.80
2023-08-16T09:53:58.067Z,8.38
2023-08-16T10:00:11.186Z,8.27
2023-08-16T10:03:14.426Z,7.97
2023-08-16T10:06:20.665Z,7.25
2023-08-16T10:09:25.513Z,9.27
2023-08-16T10:12:29.673Z,8.10
2023-08-16T10:15:34.444Z,10.18
2023-08-16T10:18:37.765Z,7.47
2023-08-16T10:21:42.365Z,7.75
2023-08-16T10:24:50.743Z,9.30
2023-08-16T10:27:57.456Z,7.25
2023-08-16T10:34:10.289Z,7.07
2023-08-16T10:37:16.479Z,6.25
2023-08-16T10:40:26.177Z,7.03
2023-08-16T10:43:36.995Z,6.85
2023-08-16T10:46:40.959Z,5.28
2023-08-16T10:49:46.904Z,7.43
2023-08-16T10:52:52.735Z,6.13
2023-08-16T10:55:59.434Z,5.45
2023-08-16T10:59:08.727Z,10.70
2023-08-16T11:02:16.348Z,8.77
2023-08-16T11:05:23.606Z,9.93
2023-08-16T11:08:26.937Z,6.95
2023-08-16T11:11:31.383Z,9.23
2023-08-16T11:14:35.289Z,9.73
2023-08-16T11:17:41.114Z,9.80
2023-08-16T11:20:44.561Z,9.38
2023-08-16T11:23:48.116Z,10.07
2023-08-16T11:26:54.789Z,7.22
2023-08-16T11:30:00.878Z,7.13
2023-08-16T11:33:04.077Z,7.75
2023-08-16T11:36:08.380Z,5.88
2023-08-16T11:39:12.096Z,6.00
2023-08-16T11:42:16.497Z,9.82
2023-08-16T11:45:27.419Z,6.93
2023-08-16T11:48:31.105Z,7.63
2023-08-16T11:51:34.174Z,5.05
2023-08-16T11:54:38.910Z,7.05
2023-08-16T11:57:49.498Z,5.80
2023-08-16T12:00:52.626Z,7.47
2023-08-16T12:03:56.861Z,6.20
2023-08-16T12:07:01.661Z,5.55
2023-08-16T12:10:04.707Z,8.40
2023-08-16T12:13:15.824Z,7.43
2023-08-16T12:16:18.817Z,5.75
2023-08-16T12:19:21.861Z,6.38
2023-08-16T12:22:24.930Z,5.38
2023-08-16T12:25:27.884Z,5.75
2023-08-16T12:28:32.287Z,8.68
2023-08-16T12:31:35.670Z,7.13
2023-08-16T12:34:47.856Z,7.40
2023-08-16T12:38:04.097Z,6.20
2023-08-16T12:41:08.770Z,7.85
2023-08-16T12:44:16.069Z,7.22
2023-08-16T12:47:19.077Z,6.15
2023-08-16T12:50:22.387Z,5.50
2023-08-16T12:56:31.249Z,7.43
2023-08-16T12:59:35.597Z,6.82
2023-08-16T13:02:38.598Z,7.32
2023-08-16T13:05:54.512Z,4.75
2023-08-16T13:09:03.311Z,6.15
2023-08-16T13:12:09.698Z,9.77
2023-08-16T13:15:26.162Z,5.25
2023-08-16T13:18:44.595Z,5.35
2023-08-16T13:28:02.995Z,6.55
2023-08-16T13:31:20.449Z,5.38
2023-08-16T13:37:45.180Z,8.65
2023-08-16T13:40:53.539Z,9.05
2023-08-16T13:44:23.863Z,7.15
2023-08-16T13:47:21.198Z,9.65
2023-08-16T13:50:24.232Z,5.57
2023-08-16T13:53:27.219Z,8.77
2023-08-16T13:56:36.016Z,7.15
2023-08-16T13:59:50.218Z,40.40
2023-08-16T14:02:54.556Z,47.20
2023-08-16T14:06:01.715Z,28.65
2023-08-16T14:09:04.784Z,27.17
2023-08-16T14:12:08.417Z,18.70
2023-08-16T14:15:12.096Z,6.82
2023-08-16T14:18:16.450Z,5.15
2023-08-16T14:21:19.531Z,4.53
2023-08-16T14:24:22.487Z,3.80
2023-08-16T14:27:30.483Z,5.72
2023-08-16T14:30:33.941Z,5.15
2023-08-16T14:33:38.430Z,8.10
2023-08-16T14:36:41.409Z,7.60
2023-08-16T14:39:44.377Z,5.80
2023-08-16T14:42:47.393Z,6.32
2023-08-16T14:45:50.352Z,5.70
2023-08-16T14:48:56.297Z,7.13
2023-08-16T14:51:59.318Z,10.02
2023-08-16T14:55:02.410Z,5.65
2023-08-16T14:58:06.797Z,7.75
2023-08-16T15:01:09.764Z,7.97
2023-08-16T15:04:15.442Z,8.50
2023-08-16T15:07:19.614Z,8.93
2023-08-16T15:10:22.814Z,8.07
2023-08-16T15:13:25.825Z,9.05
2023-08-16T15:16:32.021Z,7.50
2023-08-16T15:19:41.579Z,9.43
2023-08-16T15:22:44.477Z,7.28
2023-08-16T15:25:47.659Z,8.77
2023-08-16T15:28:50.530Z,8.48
2023-08-16T15:31:53.479Z,10.20
2023-08-16T15:34:57.795Z,10.50
2023-08-16T15:38:00.662Z,10.10
2023-08-16T15:41:03.566Z,6.93
2023-08-16T15:44:06.563Z,9.43
2023-08-16T15:47:09.463Z,6.95
2023-08-16T15:50:13.927Z,7.13
2023-08-16T15:53:16.826Z,6.82
2023-08-16T15:56:19.856Z,9.40
2023-08-16T15:59:24.470Z,10.70
2023-08-16T16:02:31.832Z,5.70
2023-08-16T16:05:36.480Z,7.13
2023-08-16T16:08:40.124Z,7.63
2023-08-16T16:11:43.970Z,10.48
2023-08-16T16:14:46.876Z,8.82
2023-08-16T16:17:50.032Z,10.63
2023-08-16T16:20:54.860Z,10.57
2023-08-16T16:23:58.740Z,9.48
2023-08-16T16:27:01.814Z,9.02
2023-08-16T16:30:05.232Z,8.38
2023-08-16T16:33:08.419Z,8.38
2023-08-16T16:36:13.611Z,7.95
2023-08-16T16:39:17.476Z,7.90
2023-08-16T16:42:20.574Z,9.73
2023-08-16T16:45:24.145Z,6.50
2023-08-16T16:48:27.433Z,8.32
2023-08-16T16:51:32.752Z,8.43
2023-08-16T16:54:36.027Z,7.35
2023-08-16T16:57:40.432Z,7.97
2023-08-16T17:00:44.589Z,7.10
2023-08-16T17:03:48.610Z,8.32
2023-08-16T17:06:56.530Z,8.80
2023-08-16T17:10:00.800Z,8.55
2023-08-16T17:13:04.120Z,9.73
2023-08-16T17:16:14.234Z,7.40
2023-08-16T17:19:18.482Z,10.32
2023-08-16T17:22:24.061Z,7.88
2023-08-16T17:25:28.526Z,10.60
2023-08-16T17:28:32.209Z,7.88
2023-08-16T17:31:37.953Z,10.70
2023-08-16T17:34:41.631Z,7.40
2023-08-16T17:37:47.186Z,8.75
2023-08-16T17:40:51.790Z,8.27
2023-08-16T17:43:59.538Z,8.52
2023-08-16T17:47:03.239Z,7.22
2023-08-16T17:50:07.960Z,10.85
2023-08-16T17:53:14.279Z,7.90
2023-08-16T17:56:18.419Z,8.88
2023-08-16T17:59:24.396Z,8.75
2023-08-16T18:02:28.317Z,6.68
2023-08-16T18:05:33.100Z,8.98
2023-08-16T18:08:39.670Z,10.18
2023-08-16T18:11:43.095Z,9.77
2023-08-16T18:14:48.931Z,8.73
2023-08-16T18:17:52.828Z,11.32
2023-08-16T18:20:58.073Z,14.93
2023-08-16T18:24:02.373Z,10.70
2023-08-16T18:27:06.604Z,9.80
2023-08-16T18:30:11.777Z,15.00
2023-08-16T18:33:16.130Z,11.32
2023-08-16T18:36:20.877Z,15.07
2023-08-16T18:39:26.222Z,12.85
2023-08-16T18:42:31.566Z,11.52
2023-08-16T18:45:35.909Z,9.90
2023-08-16T18:48:40.981Z,12.43
2023-08-16T18:51:49.432Z,13.00
2023-08-16T18:54:55.253Z,12.13
2023-08-16T18:57:59.761Z,14.07
2023-08-16T19:01:06.369Z,16.85
2023-08-16T19:04:10.068Z,12.40
2023-08-16T19:07:13.945Z,14.43
2023-08-16T19:10:19.621Z,14.90
2023-08-16T19:13:24.582Z,11.38
2023-08-16T19:16:29.056Z,12.40
2023-08-16T19:19:34.284Z,15.88
2023-08-16T19:22:39.080Z,12.80
2023-08-16T19:25:43.921Z,9.23
2023-08-16T19:28:47.498Z,13.50
2023-08-16T19:31:51.713Z,8.75
2023-08-16T19:34:57.888Z,13.18
2023-08-16T19:38:01.621Z,14.50
2023-08-16T19:41:07.516Z,13.57
2023-08-16T19:44:11.793Z,11.45
2023-08-16T19:47:15.067Z,10.10
2023-08-16T19:50:19.920Z,13.00
2023-08-16T19:53:23.664Z,15.02
2023-08-16T19:56:29.779Z,11.50
2023-08-16T19:59:33.635Z,14.68
2023-08-16T20:02:37.900Z,11.40
2023-08-16T20:05:42.351Z,11.15
2023-08-16T20:08:45.460Z,10.55
2023-08-16T20:11:54.817Z,14.43
2023-08-16T20:14:59.386Z,14.52
2023-08-16T20:18:04.298Z,10.15
2023-08-16T20:21:08.120Z,10.25
2023-08-16T20:24:13.760Z,11.40
2023-08-16T20:27:20.524Z,11.07
2023-08-16T20:30:24.521Z,11.52
2023-08-16T20:33:28.822Z,11.55
2023-08-16T20:36:32.466Z,11.35
2023-08-16T20:39:35.630Z,15.52
2023-08-16T20:42:42.402Z,14.93
2023-08-16T20:45:46.019Z,12.05
2023-08-16T20:48:50.322Z,11.57
2023-08-16T20:51:53.710Z,12.02
2023-08-16T20:54:58.229Z,12.82
2023-08-16T20:58:03.324Z,10.88
2023-08-16T21:01:06.477Z,11.68
2023-08-16T21:04:09.419Z,11.65
2023-08-16T21:07:12.475Z,10.85
2023-08-16T21:10:19.145Z,12.48
2023-08-16T21:13:23.555Z,11.55
2023-08-16T21:16:26.509Z,10.82
2023-08-16T21:19:29.581Z,12.95
2023-08-16T21:22:32.399Z,12.25
2023-08-16T21:25:35.354Z,11.18
2023-08-16T21:28:39.688Z,10.27
2023-08-16T21:31:42.610Z,10.27
2023-08-16T21:34:45.613Z,10.07
2023-08-16T21:37:48.677Z,12.80
2023-08-16T21:40:58.321Z,9.50
2023-08-16T21:44:02.903Z,9.82
2023-08-16T21:47:05.992Z,10.10
2023-08-16T21:50:09.912Z,9.70
2023-08-16T21:53:12.771Z,11.80
2023-08-16T21:56:16.275Z,12.85
2023-08-16T21:59:20.943Z,10.82
2023-08-16T22:02:23.983Z,10.00
2023-08-16T22:05:26.949Z,11.98
2023-08-16T22:08:29.907Z,10.85
2023-08-16T22:11:32.837Z,13.63
2023-08-16T22:14:37.256Z,11.15
2023-08-16T22:17:40.570Z,12.02
2023-08-16T22:20:56.594Z,11.70
2023-08-16T22:24:08.528Z,12.35
2023-08-16T22:27:11.395Z,10.85
2023-08-16T22:30:16.069Z,11.18
2023-08-16T22:33:19.037Z,11.05
2023-08-16T22:36:21.988Z,10.50
2023-08-16T22:39:24.875Z,10.32
2023-08-16T22:42:28.543Z,13.13
2023-08-16T22:45:33.020Z,12.07
2023-08-16T22:48:35.912Z,12.85
2023-08-16T22:51:38.939Z,12.90
2023-08-16T22:54:41.848Z,10.57
2023-08-16T22:57:46.933Z,10.05
2023-08-16T23:00:51.173Z,10.60
2023-08-16T23:03:54.267Z,11.32
2023-08-16T23:06:57.158Z,12.27
2023-08-16T23:10:00.211Z,12.52
2023-08-16T23:13:03.346Z,11.95
2023-08-16T23:16:07.685Z,13.70
2023-08-16T23:19:10.589Z,14.60
2023-08-16T23:22:13.577Z,14.82
2023-08-16T23:25:16.435Z,12.73
2023-08-16T23:28:21.017Z,13.05
2023-08-16T23:31:25.264Z,13.32
2023-08-16T23:34:28.444Z,13.13
2023-08-16T23:37:31.363Z,11.77
2023-08-16T23:40:34.204Z,12.55
2023-08-16T23:43:40.050Z,12.20
2023-08-16T23:46:44.546Z,11.48
2023-08-16T23:49:47.692Z,11.15
2023-08-16T23:52:50.553Z,12.93
2023-08-16T23:55:54.201Z,11.18
2023-08-16T23:58:58.909Z,11.23
